createdAt,value
2022-09-01T00:00:15.292Z,69.12
2022-09-01T00:02:44.092Z,69.04
2022-09-01T00:05:13.091Z,68.74
2022-09-01T00:07:40.494Z,68.24
2022-09-01T00:10:08.996Z,68.44
2022-09-01T00:12:37.858Z,69.12
2022-09-01T00:15:07.244Z,68.57
2022-09-01T00:17:34.832Z,67.59
2022-09-01T00:20:02.352Z,66.85
2022-09-01T00:22:30.013Z,67.43
2022-09-01T00:24:57.348Z,67.13
2022-09-01T00:27:27.928Z,66.62
2022-09-01T00:29:59.272Z,66.31
2022-09-01T00:32:27.788Z,66.92
2022-09-01T00:34:55.132Z,66.95
2022-09-01T00:37:22.439Z,66.25
2022-09-01T00:39:49.694Z,66.53
2022-09-01T00:42:17.265Z,66.78
2022-09-01T00:44:44.654Z,66.84
2022-09-01T00:47:14.849Z,66.83
2022-09-01T00:49:45.737Z,67.13
2022-09-01T00:52:16.064Z,67.44
2022-09-01T00:54:51.135Z,67.88
2022-09-01T00:57:18.772Z,67.37
2022-09-01T01:00:06.891Z,67.17
2022-09-01T01:02:34.273Z,67.54
2022-09-01T01:05:03.073Z,67.37
2022-09-01T01:07:30.429Z,66.98
2022-09-01T01:09:57.987Z,67.46
2022-09-01T01:12:28.205Z,67.20
2022-09-01T01:14:57.304Z,66.92
2022-09-01T01:17:25.703Z,67.40
2022-09-01T01:20:17.021Z,66.81
2022-09-01T01:23:02.504Z,67.81
2022-09-01T01:25:34.014Z,67.82
2022-09-01T01:28:18.750Z,67.44
2022-09-01T01:31:01.825Z,67.39
2022-09-01T01:33:35.445Z,67.74
2022-09-01T01:36:03.887Z,67.26
2022-09-01T01:38:31.879Z,67.48
2022-09-01T01:41:00.293Z,67.15
2022-09-01T01:43:29.280Z,67.47
2022-09-01T01:46:02.962Z,67.73
2022-09-01T01:48:41.334Z,66.95
2022-09-01T01:51:10.798Z,66.62
2022-09-01T01:53:39.208Z,66.78
2022-09-01T01:56:09.254Z,66.64
2022-09-01T01:58:37.509Z,67.40
2022-09-01T02:01:12.994Z,66.72
2022-09-01T02:03:41.127Z,66.76
2022-09-01T02:06:12.291Z,66.46
2022-09-01T02:08:42.406Z,67.28
2022-09-01T02:11:10.052Z,66.45
2022-09-01T02:13:37.406Z,66.60
2022-09-01T02:16:13.300Z,66.76
2022-09-01T02:18:48.359Z,66.14
2022-09-01T02:21:22.131Z,66.72
2022-09-01T02:24:02.535Z,65.61
2022-09-01T02:26:39.899Z,65.47
2022-09-01T02:29:18.235Z,65.33
2022-09-01T02:31:48.369Z,65.75
2022-09-01T02:34:17.344Z,66.43
2022-09-01T02:36:49.468Z,66.64
2022-09-01T02:39:26.766Z,66.33
2022-09-01T02:41:54.900Z,66.40
2022-09-01T02:44:28.080Z,65.99
2022-09-01T02:46:56.281Z,66.18
2022-09-01T02:49:28.447Z,66.92
2022-09-01T02:51:59.785Z,66.89
2022-09-01T02:54:28.975Z,66.79
2022-09-01T02:56:56.871Z,67.18
2022-09-01T02:59:29.044Z,66.89
2022-09-01T03:02:01.306Z,66.60
2022-09-01T03:04:35.322Z,67.25
2022-09-01T03:07:07.416Z,67.56
2022-09-01T03:09:35.682Z,68.07
2022-09-01T03:12:04.159Z,68.27
2022-09-01T03:14:32.371Z,68.44
2022-09-01T03:17:01.128Z,68.34
2022-09-01T03:19:32.830Z,68.76
2022-09-01T03:22:13.498Z,70.63
2022-09-01T03:24:44.768Z,71.24
2022-09-01T03:27:12.254Z,71.44
2022-09-01T03:29:41.089Z,72.45
2022-09-01T03:32:09.532Z,70.74
2022-09-01T03:34:39.785Z,70.59
2022-09-01T03:37:10.000Z,69.67
2022-09-01T03:39:38.892Z,69.51
2022-09-01T03:42:09.433Z,69.47
2022-09-01T03:44:42.969Z,69.27
2022-09-01T03:47:15.569Z,68.88
2022-09-01T03:49:45.714Z,68.94
2022-09-01T03:52:13.682Z,68.58
2022-09-01T03:54:41.106Z,68.58
2022-09-01T03:57:10.290Z,67.90
2022-09-01T03:59:45.485Z,67.33
2022-09-01T04:02:13.414Z,67.31
2022-09-01T04:04:40.935Z,67.21
2022-09-01T04:07:08.322Z,67.34
2022-09-01T04:09:37.450Z,67.16
2022-09-01T04:12:08.383Z,67.07
2022-09-01T04:14:44.841Z,67.13
2022-09-01T04:17:30.739Z,67.32
2022-09-01T04:19:58.523Z,67.92
2022-09-01T04:22:31.351Z,67.78
2022-09-01T04:25:02.421Z,67.98
2022-09-01T04:27:30.097Z,67.70
2022-09-01T04:29:57.887Z,67.83
2022-09-01T04:32:33.766Z,67.70
2022-09-01T04:35:05.543Z,69.22
2022-09-01T04:37:33.136Z,68.84
2022-09-01T04:40:03.970Z,68.52
2022-09-01T04:42:32.838Z,68.52
2022-09-01T04:45:10.761Z,68.65
2022-09-01T04:47:45.686Z,67.67
2022-09-01T04:50:19.563Z,67.79
2022-09-01T04:53:07.235Z,67.34
2022-09-01T04:55:49.842Z,66.06
2022-09-01T04:58:20.939Z,64.85
2022-09-01T05:00:52.566Z,65.33
2022-09-01T05:03:24.784Z,65.46
2022-09-01T05:06:01.433Z,65.16
2022-09-01T05:08:29.372Z,65.60
2022-09-01T05:11:09.947Z,65.37
2022-09-01T05:13:39.907Z,64.64
2022-09-01T05:16:13.519Z,64.92
2022-09-01T05:18:49.151Z,64.21
2022-09-01T05:21:22.504Z,63.85
2022-09-01T05:23:52.054Z,63.29
2022-09-01T05:26:27.142Z,63.07
2022-09-01T05:29:00.172Z,63.56
2022-09-01T05:31:35.252Z,63.58
2022-09-01T05:34:05.053Z,62.14
2022-09-01T05:36:33.942Z,60.50
2022-09-01T05:39:05.655Z,60.73
2022-09-01T05:41:36.052Z,60.62
2022-09-01T05:44:07.327Z,59.74
2022-09-01T05:46:38.004Z,59.54
2022-09-01T05:49:08.647Z,58.49
2022-09-01T05:51:45.618Z,59.11
2022-09-01T05:54:15.047Z,59.63
2022-09-01T05:56:44.894Z,59.72
2022-09-01T05:59:24.927Z,59.64
2022-09-01T06:02:00.788Z,59.37
2022-09-01T06:04:31.427Z,59.22
2022-09-01T06:07:10.250Z,58.02
2022-09-01T06:09:48.782Z,58.32
2022-09-01T06:12:24.116Z,58.08
2022-09-01T06:14:54.316Z,57.63
2022-09-01T06:17:25.536Z,57.41
2022-09-01T06:19:56.494Z,57.03
2022-09-01T06:22:26.708Z,56.11
2022-09-01T06:24:59.452Z,55.57
2022-09-01T06:27:34.446Z,55.99
2022-09-01T06:30:03.263Z,54.70
2022-09-01T06:32:39.114Z,54.00
2022-09-01T06:35:09.445Z,53.42
2022-09-01T06:37:40.920Z,53.46
2022-09-01T06:40:17.463Z,52.69
2022-09-01T06:42:51.241Z,52.18
2022-09-01T06:45:21.612Z,52.48
2022-09-01T06:47:51.364Z,52.13
2022-09-01T06:53:39.264Z,50.81
2022-09-01T06:56:15.290Z,50.26
2022-09-01T06:58:47.794Z,50.07
2022-09-01T07:01:19.843Z,49.20
2022-09-01T07:03:54.065Z,50.14
2022-09-01T07:09:46.264Z,49.77
2022-09-01T07:16:32.089Z,48.74
2022-09-01T07:18:25.923Z,47.55
2022-09-01T07:24:08.058Z,46.96
2022-09-01T07:26:45.387Z,45.72
2022-09-01T07:29:15.452Z,44.59
2022-09-01T07:32:41.193Z,45.25
2022-09-01T07:34:40.135Z,44.72
2022-09-01T07:45:58.827Z,44.29
2022-09-01T07:51:37.242Z,43.12
2022-09-01T07:54:06.954Z,43.52
2022-09-01T07:56:39.491Z,42.99
2022-09-01T07:59:14.561Z,43.07
2022-09-01T08:02:17.914Z,42.57
2022-09-01T08:04:47.636Z,41.97
2022-09-01T08:07:16.592Z,42.48
2022-09-01T08:09:44.849Z,41.80
2022-09-01T08:12:14.376Z,41.25
2022-09-01T08:16:06.782Z,41.91
2022-09-01T08:17:52.100Z,42.38
2022-09-01T08:20:22.270Z,43.13
2022-09-01T08:22:57.212Z,42.10
2022-09-01T08:25:32.952Z,41.43
2022-09-01T08:28:02.616Z,40.98
2022-09-01T08:30:32.882Z,40.80
2022-09-01T08:33:10.233Z,40.32
2022-09-01T08:35:40.905Z,40.14
2022-09-01T08:38:09.586Z,39.82
2022-09-01T08:40:38.415Z,39.12
2022-09-01T08:43:41.067Z,39.49
2022-09-01T08:46:35.313Z,39.71
2022-09-01T08:49:26.630Z,39.91
2022-09-01T08:52:45.020Z,39.79
2022-09-01T08:55:26.252Z,39.04
2022-09-01T08:57:59.921Z,40.08
2022-09-01T09:00:30.699Z,39.85
2022-09-01T09:03:40.504Z,39.92
2022-09-01T09:06:17.278Z,39.23
2022-09-01T09:08:58.919Z,38.72
2022-09-01T09:12:04.475Z,39.37
2022-09-01T09:14:53.160Z,40.32
2022-09-01T09:17:28.210Z,40.08
2022-09-01T09:19:56.827Z,39.80
2022-09-01T09:22:24.135Z,39.56
2022-09-01T09:25:10.193Z,38.65
2022-09-01T09:27:39.302Z,37.72
2022-09-01T09:30:13.628Z,38.89
2022-09-01T09:35:46.198Z,39.46
2022-09-01T09:38:21.768Z,37.00
2022-09-01T09:41:16.445Z,35.49
2022-09-01T09:44:20.508Z,35.40
2022-09-01T09:46:50.552Z,35.18
2022-09-01T09:49:42.214Z,33.84
2022-09-01T09:52:19.446Z,33.41
2022-09-01T09:55:22.713Z,32.50
2022-09-01T09:57:59.288Z,32.47
2022-09-01T10:00:39.324Z,31.25
2022-09-01T10:03:15.826Z,33.29
2022-09-01T10:05:46.111Z,32.15
2022-09-01T10:08:37.883Z,34.47
2022-09-01T10:11:08.312Z,34.71
2022-09-01T10:13:37.023Z,34.66
2022-09-01T10:16:32.493Z,35.70
2022-09-01T10:19:02.716Z,37.24
2022-09-01T10:21:35.893Z,36.01
2022-09-01T10:24:44.690Z,36.40
2022-09-01T10:27:35.896Z,34.00
2022-09-01T10:30:21.263Z,34.54
2022-09-01T10:32:55.242Z,35.76
2022-09-01T10:35:34.419Z,35.57
2022-09-01T10:38:08.309Z,34.29
2022-09-01T10:40:50.119Z,31.53
2022-09-01T10:43:41.948Z,33.15
2022-09-01T10:46:25.924Z,33.51
2022-09-01T10:49:04.395Z,34.20
2022-09-01T10:54:45.243Z,33.57
2022-09-01T10:57:26.788Z,34.61
2022-09-01T11:06:12.633Z,29.66
2022-09-01T11:08:50.997Z,31.11
2022-09-01T11:11:48.016Z,30.78
2022-09-01T11:14:23.109Z,30.81
2022-09-01T11:17:14.581Z,32.82
2022-09-01T11:20:06.485Z,34.13
2022-09-01T11:22:41.217Z,33.19
2022-09-01T11:25:41.511Z,32.39
2022-09-01T11:28:31.869Z,32.64
2022-09-01T11:31:09.003Z,32.10
2022-09-01T11:34:02.078Z,29.52
2022-09-01T11:36:38.044Z,31.85
2022-09-01T11:39:07.562Z,31.09
2022-09-01T11:41:59.692Z,30.72
2022-09-01T11:44:55.287Z,30.53
2022-09-01T11:47:27.571Z,32.02
2022-09-01T11:49:59.837Z,32.46
2022-09-01T11:52:32.421Z,29.92
2022-09-01T11:55:00.248Z,29.07
2022-09-01T11:57:30.694Z,29.40
2022-09-01T12:00:00.419Z,28.82
2022-09-01T12:02:33.861Z,29.27
2022-09-01T12:05:25.888Z,29.69
2022-09-01T12:07:54.460Z,32.83
2022-09-01T12:10:27.797Z,34.14
2022-09-01T12:13:07.477Z,35.26
2022-09-01T12:15:46.432Z,34.84
2022-09-01T12:18:28.154Z,34.94
2022-09-01T12:20:58.527Z,35.43
2022-09-01T12:23:29.547Z,35.45
2022-09-01T12:26:05.588Z,35.70
2022-09-01T12:28:35.632Z,35.59
2022-09-01T12:31:07.634Z,35.86
2022-09-01T12:33:37.296Z,36.21
2022-09-01T12:36:17.592Z,35.97
2022-09-01T12:38:44.902Z,36.67
2022-09-01T12:41:31.795Z,36.05
2022-09-01T12:44:31.722Z,36.39
2022-09-01T12:47:04.467Z,36.21
2022-09-01T12:49:37.145Z,36.57
2022-09-01T12:52:26.633Z,37.26
2022-09-01T12:54:58.774Z,37.31
2022-09-01T12:57:48.792Z,36.98
2022-09-01T13:00:25.229Z,36.70
2022-09-01T13:05:41.868Z,35.56
2022-09-01T13:08:15.145Z,35.67
2022-09-01T13:10:54.276Z,34.97
2022-09-01T13:13:24.575Z,35.56
2022-09-01T13:15:55.040Z,36.46
2022-09-01T13:18:24.243Z,36.07
2022-09-01T13:20:53.480Z,36.93
2022-09-01T13:23:21.852Z,36.10
2022-09-01T13:25:50.073Z,35.52
2022-09-01T13:28:18.736Z,34.40
2022-09-01T13:31:28.524Z,35.71
2022-09-01T13:36:46.222Z,35.35
2022-09-01T13:39:15.713Z,34.88
2022-09-01T13:41:43.598Z,36.50
2022-09-01T13:44:11.426Z,36.26
2022-09-01T13:49:44.952Z,37.27
2022-09-01T13:52:14.971Z,35.24
2022-09-01T13:54:44.601Z,34.17
2022-09-01T13:57:12.474Z,34.08
2022-09-01T13:59:42.134Z,33.99
2022-09-01T14:02:10.674Z,34.22
2022-09-01T14:04:38.336Z,35.51
2022-09-01T14:07:06.341Z,35.50
2022-09-01T14:09:33.874Z,36.14
2022-09-01T14:12:01.409Z,36.12
2022-09-01T14:17:18.244Z,37.31
2022-09-01T14:19:51.908Z,36.73
2022-09-01T14:22:19.384Z,37.15
2022-09-01T14:24:46.836Z,37.54
2022-09-01T14:27:14.227Z,37.58
2022-09-01T14:32:11.171Z,38.55
2022-09-01T14:34:39.860Z,39.16
2022-09-01T14:37:07.629Z,39.88
2022-09-01T14:39:34.951Z,39.87
2022-09-01T14:42:02.282Z,39.26
2022-09-01T14:44:29.621Z,39.64
2022-09-01T14:46:57.388Z,40.83
2022-09-01T14:49:33.219Z,40.83
2022-09-01T14:52:17.853Z,41.76
2022-09-01T14:54:45.635Z,41.20
2022-09-01T14:57:36.646Z,41.45
2022-09-01T15:00:02.060Z,41.45
2022-09-01T15:02:29.474Z,41.26
2022-09-01T15:04:57.191Z,41.52
2022-09-01T15:07:24.655Z,40.57
2022-09-01T15:09:54.331Z,39.81
2022-09-01T15:12:22.694Z,38.85
2022-09-01T15:14:53.070Z,39.41
2022-09-01T15:17:20.425Z,40.30
2022-09-01T15:19:47.797Z,41.35
2022-09-01T15:22:16.731Z,42.10
2022-09-01T15:24:45.525Z,42.79
2022-09-01T15:27:13.067Z,42.46
2022-09-01T15:29:48.028Z,41.72
2022-09-01T15:32:27.613Z,41.17
2022-09-01T15:34:56.650Z,40.89
2022-09-01T15:37:24.120Z,41.96
2022-09-01T15:39:51.614Z,40.85
2022-09-01T15:42:19.223Z,40.35
2022-09-01T15:44:47.607Z,42.26
2022-09-01T15:47:16.337Z,42.96
2022-09-01T15:49:43.956Z,42.78
2022-09-01T15:52:11.399Z,43.54
2022-09-01T15:54:40.123Z,43.69
2022-09-01T15:57:09.223Z,44.10
2022-09-01T15:59:41.211Z,44.81
2022-09-01T16:02:10.654Z,44.25
2022-09-01T16:04:39.181Z,44.11
2022-09-01T16:07:06.604Z,44.04
2022-09-01T16:09:34.220Z,44.62
2022-09-01T16:12:01.733Z,45.50
2022-09-01T16:14:31.939Z,46.03
2022-09-01T16:17:06.276Z,45.88
2022-09-01T16:20:05.696Z,46.86
2022-09-01T16:22:50.062Z,47.22
2022-09-01T16:25:35.757Z,47.44
2022-09-01T16:28:36.014Z,47.95
2022-09-01T16:31:14.266Z,48.80
2022-09-01T16:33:56.598Z,49.03
2022-09-01T16:36:27.099Z,48.30
2022-09-01T16:39:16.548Z,47.65
2022-09-01T16:42:13.664Z,47.99
2022-09-01T16:44:54.279Z,47.77
2022-09-01T16:47:42.639Z,48.96
2022-09-01T16:50:37.792Z,48.59
2022-09-01T16:53:11.862Z,48.48
2022-09-01T16:55:46.450Z,48.14
2022-09-01T16:58:13.727Z,48.23
2022-09-01T17:00:59.123Z,49.61
2022-09-01T17:04:02.171Z,48.51
2022-09-01T17:06:34.385Z,50.41
2022-09-01T17:09:29.909Z,50.94
2022-09-01T17:12:28.457Z,51.54
2022-09-01T17:15:05.460Z,52.17
2022-09-01T17:17:53.238Z,52.65
2022-09-01T17:20:28.836Z,53.50
2022-09-01T17:23:00.909Z,53.42
2022-09-01T17:25:33.189Z,53.47
2022-09-01T17:28:17.014Z,53.82
2022-09-01T17:31:14.636Z,53.44
2022-09-01T17:33:57.039Z,53.12
2022-09-01T17:36:46.123Z,53.59
2022-09-01T17:39:17.138Z,53.84
2022-09-01T17:41:54.935Z,53.62
2022-09-01T17:44:25.154Z,54.38
2022-09-01T17:47:12.900Z,54.70
2022-09-01T17:50:21.847Z,54.82
2022-09-01T17:53:33.839Z,56.39
2022-09-01T17:56:14.894Z,59.29
2022-09-01T17:59:17.554Z,61.24
2022-09-01T18:01:55.134Z,62.00
2022-09-01T18:04:42.644Z,62.55
2022-09-01T18:07:31.352Z,63.51
2022-09-01T18:10:02.827Z,64.71
2022-09-01T18:12:35.949Z,65.55
2022-09-01T18:15:13.839Z,67.04
2022-09-01T18:17:47.098Z,65.84
2022-09-01T18:20:24.940Z,66.44
2022-09-01T18:23:12.532Z,66.64
2022-09-01T18:25:51.276Z,67.08
2022-09-01T18:28:19.802Z,65.83
2022-09-01T18:31:07.928Z,63.61
2022-09-01T18:33:47.128Z,62.99
2022-09-01T18:36:26.445Z,62.63
2022-09-01T18:39:09.695Z,62.41
2022-09-01T18:42:04.821Z,62.77
2022-09-01T18:45:06.497Z,61.58
2022-09-01T18:47:37.903Z,61.92
2022-09-01T18:50:18.525Z,62.38
2022-09-01T18:53:12.798Z,63.29
2022-09-01T18:56:06.245Z,64.73
2022-09-01T18:58:53.478Z,66.92
2022-09-01T19:01:33.244Z,68.54
2022-09-01T19:04:15.425Z,69.46
2022-09-01T19:07:14.936Z,69.84
2022-09-01T19:09:46.206Z,69.78
2022-09-01T19:12:42.504Z,70.49
2022-09-01T19:15:15.864Z,72.25
2022-09-01T19:18:10.224Z,76.42
2022-09-01T19:20:53.215Z,81.74
2022-09-01T19:23:20.640Z,83.75
2022-09-01T19:25:50.569Z,85.42
2022-09-01T19:28:45.675Z,88.27
2022-09-01T19:31:19.341Z,89.83
2022-09-01T19:34:05.642Z,90.23
2022-09-01T19:36:42.909Z,90.54
2022-09-01T19:39:16.175Z,91.22
2022-09-01T19:41:52.604Z,91.85
2022-09-01T19:44:29.239Z,91.80
2022-09-01T19:47:08.260Z,91.44
2022-09-01T19:49:51.556Z,91.36
2022-09-01T19:52:32.652Z,91.72
2022-09-01T19:55:17.356Z,91.57
2022-09-01T19:58:09.146Z,91.31
2022-09-01T20:00:56.632Z,90.25
2022-09-01T20:03:38.677Z,90.18
2022-09-01T20:06:08.404Z,91.52
2022-09-01T20:08:42.026Z,91.54
2022-09-01T20:11:29.763Z,90.83
2022-09-01T20:14:07.832Z,91.37
2022-09-01T20:16:42.735Z,92.34
2022-09-01T20:19:32.758Z,93.07
2022-09-01T20:22:14.219Z,93.92
2022-09-01T20:24:41.989Z,94.15
2022-09-01T20:27:35.060Z,94.31
2022-09-01T20:30:17.074Z,94.96
2022-09-01T20:33:20.366Z,95.48
2022-09-01T20:35:56.633Z,95.38
2022-09-01T20:39:13.326Z,94.28
2022-09-01T20:41:49.429Z,93.91
2022-09-01T20:44:33.373Z,94.54
2022-09-01T20:47:00.882Z,94.96
2022-09-01T20:49:28.376Z,95.45
2022-09-01T20:52:07.560Z,94.52
2022-09-01T20:54:46.831Z,94.06
2022-09-01T20:57:43.237Z,94.59
2022-09-01T21:00:15.688Z,95.66
2022-09-01T21:03:18.417Z,95.36
2022-09-01T21:06:30.552Z,95.27
2022-09-01T21:09:15.681Z,95.17
2022-09-01T21:11:50.856Z,94.16
2022-09-01T21:14:37.039Z,94.24
2022-09-01T21:17:20.863Z,92.97
2022-09-01T21:20:14.252Z,91.56
2022-09-01T21:22:41.716Z,89.04
2022-09-01T21:25:11.417Z,87.99
2022-09-01T21:27:45.956Z,85.59
2022-09-01T21:30:16.271Z,84.49
2022-09-01T21:32:44.144Z,85.40
2022-09-01T21:35:14.953Z,84.56
2022-09-01T21:37:42.351Z,85.55
2022-09-01T21:40:11.571Z,84.57
2022-09-01T21:42:40.795Z,84.02
2022-09-01T21:45:12.328Z,85.73
2022-09-01T21:47:41.148Z,84.86
2022-09-01T21:50:09.716Z,84.38
2022-09-01T21:52:36.991Z,83.75
2022-09-01T21:55:05.541Z,84.40
2022-09-01T21:57:32.814Z,84.93
2022-09-01T22:00:14.493Z,84.08
2022-09-01T22:02:46.530Z,84.88
2022-09-01T22:05:14.598Z,84.84
2022-09-01T22:07:45.621Z,84.50
2022-09-01T22:10:18.123Z,85.28
2022-09-01T22:12:47.484Z,85.51
2022-09-01T22:15:19.406Z,85.61
2022-09-01T22:17:47.619Z,85.21
2022-09-01T22:20:19.356Z,85.78
2022-09-01T22:22:47.427Z,85.43
2022-09-01T22:25:19.595Z,85.54
2022-09-01T22:27:47.428Z,85.43
2022-09-01T22:30:15.748Z,85.71
2022-09-01T22:32:45.636Z,85.89
2022-09-01T22:35:16.392Z,85.85
2022-09-01T22:37:43.988Z,86.47
2022-09-01T22:40:12.799Z,86.04
2022-09-01T22:42:40.308Z,86.41
2022-09-01T22:45:10.077Z,86.34
2022-09-01T22:47:39.678Z,86.27
2022-09-01T22:50:11.288Z,86.90
2022-09-01T22:52:51.918Z,87.58
2022-09-01T22:55:19.927Z,87.82
2022-09-01T22:57:47.413Z,87.96
2022-09-01T23:00:15.168Z,88.37
2022-09-01T23:02:42.522Z,88.56
2022-09-01T23:05:10.207Z,88.80
2022-09-01T23:07:39.586Z,88.61
2022-09-01T23:10:09.038Z,88.68
2022-09-01T23:12:36.362Z,88.22
2022-09-01T23:15:04.633Z,88.16
2022-09-01T23:17:33.704Z,88.60
2022-09-01T23:20:02.549Z,88.98
2022-09-01T23:22:31.437Z,89.29
2022-09-01T23:25:00.007Z,89.84
2022-09-01T23:27:27.309Z,89.97
2022-09-01T23:29:55.397Z,89.60
2022-09-01T23:32:22.943Z,89.37
2022-09-01T23:34:52.348Z,88.86
2022-09-01T23:37:20.121Z,88.76
2022-09-01T23:39:47.473Z,90.28
2022-09-01T23:42:14.775Z,91.71
2022-09-01T23:44:43.169Z,93.45
2022-09-01T23:47:10.780Z,94.24
2022-09-01T23:49:41.924Z,93.96
2022-09-01T23:52:11.694Z,93.58
2022-09-01T23:54:39.124Z,94.53
2022-09-01T23:57:06.685Z,94.32
2022-09-01T23:59:34.055Z,94.66
